sensor_id;sensor_type;location;lat;lon;timestamp;pressure;altitude;pressure_sealevel;temperature
10598;BMP180;5346;48.766;8.674;2023-12-20T00:01:57;93940.00;;;5.90
10598;BMP180;5346;48.766;8.674;2023-12-20T00:04:38;93940.00;;;6.10
10598;BMP180;5346;48.766;8.674;2023-12-20T00:07:05;93937.00;;;5.90
10598;BMP180;5346;48.766;8.674;2023-12-20T00:09:40;93940.00;;;5.70
10598;BMP180;5346;48.766;8.674;2023-12-20T00:12:08;93944.00;;;5.60
10598;BMP180;5346;48.766;8.674;2023-12-20T00:14:42;93934.00;;;5.50
10598;BMP180;5346;48.766;8.674;2023-12-20T00:17:16;93930.00;;;5.50
10598;BMP180;5346;48.766;8.674;2023-12-20T00:19:50;93919.00;;;5.50
10598;BMP180;5346;48.766;8.674;2023-12-20T00:22:20;93921.00;;;5.50
10598;BMP180;5346;48.766;8.674;2023-12-20T00:24:54;93926.00;;;5.50
10598;BMP180;5346;48.766;8.674;2023-12-20T00:27:22;93905.00;;;5.50
10598;BMP180;5346;48.766;8.674;2023-12-20T00:29:57;93913.00;;;5.30
10598;BMP180;5346;48.766;8.674;2023-12-20T00:32:24;93916.00;;;5.20
10598;BMP180;5346;48.766;8.674;2023-12-20T00:34:52;93902.00;;;5.30
10598;BMP180;5346;48.766;8.674;2023-12-20T00:37:28;93900.00;;;5.10
10598;BMP180;5346;48.766;8.674;2023-12-20T00:40:03;93906.00;;;4.90
10598;BMP180;5346;48.766;8.674;2023-12-20T00:42:38;93900.00;;;4.90
10598;BMP180;5346;48.766;8.674;2023-12-20T00:45:07;93901.00;;;5.00
10598;BMP180;5346;48.766;8.674;2023-12-20T00:47:42;93905.00;;;4.90
10598;BMP180;5346;48.766;8.674;2023-12-20T00:50:18;93908.00;;;4.80
10598;BMP180;5346;48.766;8.674;2023-12-20T00:52:56;93910.00;;;4.80
10598;BMP180;5346;48.766;8.674;2023-12-20T00:55:24;93921.00;;;4.80
10598;BMP180;5346;48.766;8.674;2023-12-20T00:57:59;93909.00;;;4.70
10598;BMP180;5346;48.766;8.674;2023-12-20T01:00:27;93913.00;;;4.70
10598;BMP180;5346;48.766;8.674;2023-12-20T01:03:01;93911.00;;;4.60
10598;BMP180;5346;48.766;8.674;2023-12-20T01:05:35;93906.00;;;4.60
10598;BMP180;5346;48.766;8.674;2023-12-20T01:08:10;93911.00;;;4.60
10598;BMP180;5346;48.766;8.674;2023-12-20T01:10:38;93921.00;;;4.50
10598;BMP180;5346;48.766;8.674;2023-12-20T01:13:14;93915.00;;;4.50
10598;BMP180;5346;48.766;8.674;2023-12-20T01:15:41;93920.00;;;4.50
10598;BMP180;5346;48.766;8.674;2023-12-20T01:18:15;93912.00;;;4.60
10598;BMP180;5346;48.766;8.674;2023-12-20T01:20:43;93933.00;;;4.30
10598;BMP180;5346;48.766;8.674;2023-12-20T01:23:10;93923.00;;;4.30
10598;BMP180;5346;48.766;8.674;2023-12-20T01:25:45;93926.00;;;4.30
10598;BMP180;5346;48.766;8.674;2023-12-20T01:28:19;93916.00;;;4.30
10598;BMP180;5346;48.766;8.674;2023-12-20T01:30:47;93919.00;;;4.10
10598;BMP180;5346;48.766;8.674;2023-12-20T01:33:15;93928.00;;;4.00
10598;BMP180;5346;48.766;8.674;2023-12-20T01:35:49;93912.00;;;4.00
10598;BMP180;5346;48.766;8.674;2023-12-20T01:38:17;93912.00;;;4.00
10598;BMP180;5346;48.766;8.674;2023-12-20T01:40:52;93915.00;;;4.10
10598;BMP180;5346;48.766;8.674;2023-12-20T01:43:20;93922.00;;;4.00
10598;BMP180;5346;48.766;8.674;2023-12-20T01:45:59;93903.00;;;3.90
10598;BMP180;5346;48.766;8.674;2023-12-20T01:48:28;93919.00;;;4.00
10598;BMP180;5346;48.766;8.674;2023-12-20T01:51:03;93914.00;;;3.80
10598;BMP180;5346;48.766;8.674;2023-12-20T01:53:40;93903.00;;;3.80
10598;BMP180;5346;48.766;8.674;2023-12-20T01:56:08;93910.00;;;3.70
10598;BMP180;5346;48.766;8.674;2023-12-20T01:58:44;93909.00;;;3.70
10598;BMP180;5346;48.766;8.674;2023-12-20T02:01:20;93906.00;;;3.80
10598;BMP180;5346;48.766;8.674;2023-12-20T02:03:49;93924.00;;;3.70
10598;BMP180;5346;48.766;8.674;2023-12-20T02:06:33;93923.00;;;3.60
10598;BMP180;5346;48.766;8.674;2023-12-20T02:09:03;93916.00;;;3.70
10598;BMP180;5346;48.766;8.674;2023-12-20T02:11:38;93914.00;;;3.50
10598;BMP180;5346;48.766;8.674;2023-12-20T02:14:08;93923.00;;;3.40
10598;BMP180;5346;48.766;8.674;2023-12-20T02:16:42;93909.00;;;3.30
10598;BMP180;5346;48.766;8.674;2023-12-20T02:19:14;93916.00;;;3.20
10598;BMP180;5346;48.766;8.674;2023-12-20T02:22:04;93914.00;;;3.30
10598;BMP180;5346;48.766;8.674;2023-12-20T02:24:39;93919.00;;;3.30
10598;BMP180;5346;48.766;8.674;2023-12-20T02:27:15;93906.00;;;3.30
10598;BMP180;5346;48.766;8.674;2023-12-20T02:29:52;93914.00;;;3.10
10598;BMP180;5346;48.766;8.674;2023-12-20T02:32:21;93916.00;;;3.00
10598;BMP180;5346;48.766;8.674;2023-12-20T02:34:58;93919.00;;;3.10
10598;BMP180;5346;48.766;8.674;2023-12-20T02:37:33;93920.00;;;3.00
10598;BMP180;5346;48.766;8.674;2023-12-20T02:40:09;93930.00;;;3.10
10598;BMP180;5346;48.766;8.674;2023-12-20T02:42:37;93916.00;;;2.90
10598;BMP180;5346;48.766;8.674;2023-12-20T02:45:11;93930.00;;;3.00
10598;BMP180;5346;48.766;8.674;2023-12-20T02:47:45;93923.00;;;2.80
10598;BMP180;5346;48.766;8.674;2023-12-20T02:50:19;93924.00;;;2.70
10598;BMP180;5346;48.766;8.674;2023-12-20T02:52:53;93916.00;;;2.80
10598;BMP180;5346;48.766;8.674;2023-12-20T02:55:27;93927.00;;;2.80
10598;BMP180;5346;48.766;8.674;2023-12-20T02:58:01;93926.00;;;2.70
10598;BMP180;5346;48.766;8.674;2023-12-20T03:00:38;93922.00;;;2.80
10598;BMP180;5346;48.766;8.674;2023-12-20T03:03:12;93926.00;;;2.90
10598;BMP180;5346;48.766;8.674;2023-12-20T03:05:53;93931.00;;;2.80
10598;BMP180;5346;48.766;8.674;2023-12-20T03:08:21;93936.00;;;2.80
10598;BMP180;5346;48.766;8.674;2023-12-20T03:11:00;93931.00;;;2.60
10598;BMP180;5346;48.766;8.674;2023-12-20T03:13:27;93938.00;;;2.70
10598;BMP180;5346;48.766;8.674;2023-12-20T03:16:07;93933.00;;;2.70
10598;BMP180;5346;48.766;8.674;2023-12-20T03:18:41;93947.00;;;2.70
10598;BMP180;5346;48.766;8.674;2023-12-20T03:21:17;93939.00;;;2.70
10598;BMP180;5346;48.766;8.674;2023-12-20T03:23:51;93940.00;;;2.70
10598;BMP180;5346;48.766;8.674;2023-12-20T03:26:26;93946.00;;;2.70
10598;BMP180;5346;48.766;8.674;2023-12-20T03:28:54;93932.00;;;2.70
10598;BMP180;5346;48.766;8.674;2023-12-20T03:31:28;93947.00;;;2.60
10598;BMP180;5346;48.766;8.674;2023-12-20T03:34:02;93953.00;;;2.60
10598;BMP180;5346;48.766;8.674;2023-12-20T03:36:36;93949.00;;;2.50
10598;BMP180;5346;48.766;8.674;2023-12-20T03:39:04;93943.00;;;2.70
10598;BMP180;5346;48.766;8.674;2023-12-20T03:41:32;93957.00;;;2.50
10598;BMP180;5346;48.766;8.674;2023-12-20T03:44:07;93941.00;;;2.40
10598;BMP180;5346;48.766;8.674;2023-12-20T03:46:34;93949.00;;;2.40
10598;BMP180;5346;48.766;8.674;2023-12-20T03:49:11;93945.00;;;2.50
10598;BMP180;5346;48.766;8.674;2023-12-20T03:51:45;93945.00;;;2.50
10598;BMP180;5346;48.766;8.674;2023-12-20T03:54:19;93950.00;;;2.40
10598;BMP180;5346;48.766;8.674;2023-12-20T03:56:53;93949.00;;;2.60
10598;BMP180;5346;48.766;8.674;2023-12-20T03:59:23;93947.00;;;2.70
10598;BMP180;5346;48.766;8.674;2023-12-20T04:01:57;93945.00;;;2.50
10598;BMP180;5346;48.766;8.674;2023-12-20T04:04:38;93936.00;;;2.50
10598;BMP180;5346;48.766;8.674;2023-12-20T04:07:06;93944.00;;;2.70
10598;BMP180;5346;48.766;8.674;2023-12-20T04:09:41;93946.00;;;2.50
10598;BMP180;5346;48.766;8.674;2023-12-20T04:12:08;93957.00;;;2.70
10598;BMP180;5346;48.766;8.674;2023-12-20T04:14:40;93952.00;;;2.60
10598;BMP180;5346;48.766;8.674;2023-12-20T04:17:16;93960.00;;;2.60
10598;BMP180;5346;48.766;8.674;2023-12-20T04:19:44;93963.00;;;2.50
10598;BMP180;5346;48.766;8.674;2023-12-20T04:22:22;93956.00;;;2.60
10598;BMP180;5346;48.766;8.674;2023-12-20T04:24:56;93958.00;;;2.50
10598;BMP180;5346;48.766;8.674;2023-12-20T04:27:31;93953.00;;;2.60
10598;BMP180;5346;48.766;8.674;2023-12-20T04:30:05;93973.00;;;2.60
10598;BMP180;5346;48.766;8.674;2023-12-20T04:32:33;93980.00;;;2.50
10598;BMP180;5346;48.766;8.674;2023-12-20T04:35:07;93977.00;;;2.50
10598;BMP180;5346;48.766;8.674;2023-12-20T04:37:37;93981.00;;;2.70
10598;BMP180;5346;48.766;8.674;2023-12-20T04:40:12;93974.00;;;2.70
10598;BMP180;5346;48.766;8.674;2023-12-20T04:42:40;93978.00;;;2.60
10598;BMP180;5346;48.766;8.674;2023-12-20T04:45:20;93978.00;;;2.70
10598;BMP180;5346;48.766;8.674;2023-12-20T04:47:47;93974.00;;;2.80
10598;BMP180;5346;48.766;8.674;2023-12-20T04:50:21;93985.00;;;2.70
10598;BMP180;5346;48.766;8.674;2023-12-20T04:52:59;93982.00;;;2.70
10598;BMP180;5346;48.766;8.674;2023-12-20T04:55:27;93992.00;;;2.80
10598;BMP180;5346;48.766;8.674;2023-12-20T04:58:03;93993.00;;;2.70
10598;BMP180;5346;48.766;8.674;2023-12-20T05:00:31;94003.00;;;2.80
10598;BMP180;5346;48.766;8.674;2023-12-20T05:03:05;94003.00;;;2.70
10598;BMP180;5346;48.766;8.674;2023-12-20T05:05:46;93997.00;;;2.80
10598;BMP180;5346;48.766;8.674;2023-12-20T05:08:21;94008.00;;;2.90
10598;BMP180;5346;48.766;8.674;2023-12-20T05:10:49;94000.00;;;3.10
10598;BMP180;5346;48.766;8.674;2023-12-20T05:13:17;94007.00;;;3.00
10598;BMP180;5346;48.766;8.674;2023-12-20T05:16:04;94014.00;;;3.10
10598;BMP180;5346;48.766;8.674;2023-12-20T05:18:32;94014.00;;;3.10
10598;BMP180;5346;48.766;8.674;2023-12-20T05:21:07;94020.00;;;3.00
10598;BMP180;5346;48.766;8.674;2023-12-20T05:23:41;94027.00;;;3.00
10598;BMP180;5346;48.766;8.674;2023-12-20T05:26:11;94025.00;;;2.90
10598;BMP180;5346;48.766;8.674;2023-12-20T05:28:39;94020.00;;;3.00
10598;BMP180;5346;48.766;8.674;2023-12-20T05:31:13;94024.00;;;2.90
10598;BMP180;5346;48.766;8.674;2023-12-20T05:33:43;94030.00;;;2.90
10598;BMP180;5346;48.766;8.674;2023-12-20T05:36:20;94039.00;;;2.80
10598;BMP180;5346;48.766;8.674;2023-12-20T05:38:55;94039.00;;;2.80
10598;BMP180;5346;48.766;8.674;2023-12-20T05:41:30;94038.00;;;3.00
10598;BMP180;5346;48.766;8.674;2023-12-20T05:43:58;94051.00;;;2.90
10598;BMP180;5346;48.766;8.674;2023-12-20T05:46:32;94054.00;;;2.90
10598;BMP180;5346;48.766;8.674;2023-12-20T05:49:02;94053.00;;;2.90
10598;BMP180;5346;48.766;8.674;2023-12-20T05:51:36;94053.00;;;2.90
10598;BMP180;5346;48.766;8.674;2023-12-20T05:54:11;94061.00;;;3.00
10598;BMP180;5346;48.766;8.674;2023-12-20T05:56:38;94050.00;;;2.90
10598;BMP180;5346;48.766;8.674;2023-12-20T05:59:12;94064.00;;;2.80
10598;BMP180;5346;48.766;8.674;2023-12-20T06:01:40;94070.00;;;2.90
10598;BMP180;5346;48.766;8.674;2023-12-20T06:04:07;94087.00;;;2.70
10598;BMP180;5346;48.766;8.674;2023-12-20T06:06:44;94081.00;;;2.80
10598;BMP180;5346;48.766;8.674;2023-12-20T06:09:18;94068.00;;;3.00
10598;BMP180;5346;48.766;8.674;2023-12-20T06:11:55;94079.00;;;2.90
10598;BMP180;5346;48.766;8.674;2023-12-20T06:14:27;94075.00;;;3.00
10598;BMP180;5346;48.766;8.674;2023-12-20T06:17:01;94091.00;;;2.80
10598;BMP180;5346;48.766;8.674;2023-12-20T06:19:36;94081.00;;;2.90
10598;BMP180;5346;48.766;8.674;2023-12-20T06:22:10;94086.00;;;3.00
10598;BMP180;5346;48.766;8.674;2023-12-20T06:24:38;94080.00;;;3.00
10598;BMP180;5346;48.766;8.674;2023-12-20T06:27:12;94083.00;;;3.20
10598;BMP180;5346;48.766;8.674;2023-12-20T06:29:47;94067.00;;;3.10
10598;BMP180;5346;48.766;8.674;2023-12-20T06:32:14;94080.00;;;3.20
10598;BMP180;5346;48.766;8.674;2023-12-20T06:34:50;94096.00;;;3.00
10598;BMP180;5346;48.766;8.674;2023-12-20T06:37:24;94108.00;;;2.90
10598;BMP180;5346;48.766;8.674;2023-12-20T06:40:02;94103.00;;;3.20
10598;BMP180;5346;48.766;8.674;2023-12-20T06:42:59;94109.00;;;3.00
10598;BMP180;5346;48.766;8.674;2023-12-20T06:45:45;94100.00;;;3.10
10598;BMP180;5346;48.766;8.674;2023-12-20T06:48:20;94123.00;;;3.00
10598;BMP180;5346;48.766;8.674;2023-12-20T06:50:54;94124.00;;;2.80
10598;BMP180;5346;48.766;8.674;2023-12-20T06:53:30;94125.00;;;2.90
10598;BMP180;5346;48.766;8.674;2023-12-20T06:55:58;94125.00;;;2.70
10598;BMP180;5346;48.766;8.674;2023-12-20T06:58:35;94131.00;;;2.40
10598;BMP180;5346;48.766;8.674;2023-12-20T07:01:12;94126.00;;;2.40
10598;BMP180;5346;48.766;8.674;2023-12-20T07:03:46;94139.00;;;2.60
10598;BMP180;5346;48.766;8.674;2023-12-20T07:06:27;94130.00;;;2.60
10598;BMP180;5346;48.766;8.674;2023-12-20T07:09:01;94134.00;;;2.60
10598;BMP180;5346;48.766;8.674;2023-12-20T07:11:29;94120.00;;;2.60
10598;BMP180;5346;48.766;8.674;2023-12-20T07:14:03;94139.00;;;2.60
10598;BMP180;5346;48.766;8.674;2023-12-20T07:16:37;94141.00;;;2.60
10598;BMP180;5346;48.766;8.674;2023-12-20T07:19:14;94137.00;;;2.50
10598;BMP180;5346;48.766;8.674;2023-12-20T07:21:42;94141.00;;;2.50
10598;BMP180;5346;48.766;8.674;2023-12-20T07:24:16;94147.00;;;2.50
10598;BMP180;5346;48.766;8.674;2023-12-20T07:26:52;94150.00;;;2.60
10598;BMP180;5346;48.766;8.674;2023-12-20T07:29:27;94157.00;;;2.60
10598;BMP180;5346;48.766;8.674;2023-12-20T07:32:01;94162.00;;;2.50
10598;BMP180;5346;48.766;8.674;2023-12-20T07:34:29;94157.00;;;2.50
10598;BMP180;5346;48.766;8.674;2023-12-20T07:37:05;94153.00;;;2.60
10598;BMP180;5346;48.766;8.674;2023-12-20T07:39:33;94157.00;;;2.70
10598;BMP180;5346;48.766;8.674;2023-12-20T07:42:08;94158.00;;;2.40
10598;BMP180;5346;48.766;8.674;2023-12-20T07:44:43;94155.00;;;2.60
10598;BMP180;5346;48.766;8.674;2023-12-20T07:47:13;94153.00;;;2.60
10598;BMP180;5346;48.766;8.674;2023-12-20T07:49:51;94168.00;;;2.60
10598;BMP180;5346;48.766;8.674;2023-12-20T07:52:30;94176.00;;;2.70
10598;BMP180;5346;48.766;8.674;2023-12-20T07:54:58;94192.00;;;2.60
10598;BMP180;5346;48.766;8.674;2023-12-20T07:57:34;94187.00;;;2.50
10598;BMP180;5346;48.766;8.674;2023-12-20T08:00:09;94193.00;;;2.50
10598;BMP180;5346;48.766;8.674;2023-12-20T08:02:44;94196.00;;;2.10
10598;BMP180;5346;48.766;8.674;2023-12-20T08:05:26;94196.00;;;2.00
10598;BMP180;5346;48.766;8.674;2023-12-20T08:08:01;94197.00;;;1.90
10598;BMP180;5346;48.766;8.674;2023-12-20T08:10:35;94203.00;;;1.80
10598;BMP180;5346;48.766;8.674;2023-12-20T08:13:04;94209.00;;;1.90
10598;BMP180;5346;48.766;8.674;2023-12-20T08:15:39;94209.00;;;1.90
10598;BMP180;5346;48.766;8.674;2023-12-20T08:18:07;94210.00;;;2.10
10598;BMP180;5346;48.766;8.674;2023-12-20T08:20:42;94218.00;;;2.30
10598;BMP180;5346;48.766;8.674;2023-12-20T08:23:12;94208.00;;;2.20
10598;BMP180;5346;48.766;8.674;2023-12-20T08:25:47;94206.00;;;2.30
10598;BMP180;5346;48.766;8.674;2023-12-20T08:28:20;94204.00;;;2.20
10598;BMP180;5346;48.766;8.674;2023-12-20T08:30:55;94212.00;;;2.30
10598;BMP180;5346;48.766;8.674;2023-12-20T08:33:23;94213.00;;;1.90
10598;BMP180;5346;48.766;8.674;2023-12-20T08:35:53;94210.00;;;2.00
10598;BMP180;5346;48.766;8.674;2023-12-20T08:38:27;94213.00;;;2.20
10598;BMP180;5346;48.766;8.674;2023-12-20T08:41:02;94213.00;;;2.10
10598;BMP180;5346;48.766;8.674;2023-12-20T08:43:40;94215.00;;;1.90
10598;BMP180;5346;48.766;8.674;2023-12-20T08:46:16;94215.00;;;2.00
10598;BMP180;5346;48.766;8.674;2023-12-20T08:48:51;94214.00;;;2.30
10598;BMP180;5346;48.766;8.674;2023-12-20T08:51:28;94221.00;;;2.70
10598;BMP180;5346;48.766;8.674;2023-12-20T08:53:56;94217.00;;;3.20
10598;BMP180;5346;48.766;8.674;2023-12-20T08:56:30;94224.00;;;2.90
10598;BMP180;5346;48.766;8.674;2023-12-20T08:59:04;94222.00;;;2.50
10598;BMP180;5346;48.766;8.674;2023-12-20T09:01:38;94220.00;;;2.90
10598;BMP180;5346;48.766;8.674;2023-12-20T09:04:08;94213.00;;;2.50
10598;BMP180;5346;48.766;8.674;2023-12-20T09:06:42;94220.00;;;2.20
10598;BMP180;5346;48.766;8.674;2023-12-20T09:09:18;94204.00;;;2.50
10598;BMP180;5346;48.766;8.674;2023-12-20T09:11:53;94216.00;;;2.60
10598;BMP180;5346;48.766;8.674;2023-12-20T09:14:21;94209.00;;;2.40
10598;BMP180;5346;48.766;8.674;2023-12-20T09:16:55;94213.00;;;2.60
10598;BMP180;5346;48.766;8.674;2023-12-20T09:19:29;94197.00;;;2.40
10598;BMP180;5346;48.766;8.674;2023-12-20T09:22:05;94198.00;;;2.60
10598;BMP180;5346;48.766;8.674;2023-12-20T09:24:39;94196.00;;;2.50
10598;BMP180;5346;48.766;8.674;2023-12-20T09:27:14;94184.00;;;2.90
10598;BMP180;5346;48.766;8.674;2023-12-20T09:29:42;94197.00;;;3.30
10598;BMP180;5346;48.766;8.674;2023-12-20T09:32:16;94199.00;;;3.50
10598;BMP180;5346;48.766;8.674;2023-12-20T09:34:51;94199.00;;;3.00
10598;BMP180;5346;48.766;8.674;2023-12-20T09:37:20;94195.00;;;3.00
10598;BMP180;5346;48.766;8.674;2023-12-20T09:40:01;94188.00;;;2.90
10598;BMP180;5346;48.766;8.674;2023-12-20T09:45:19;94202.00;;;3.20
10598;BMP180;5346;48.766;8.674;2023-12-20T09:47:54;94195.00;;;3.00
10598;BMP180;5346;48.766;8.674;2023-12-20T09:50:23;94220.00;;;3.40
10598;BMP180;5346;48.766;8.674;2023-12-20T09:52:58;94210.00;;;3.40
10598;BMP180;5346;48.766;8.674;2023-12-20T09:55:28;94210.00;;;2.90
10598;BMP180;5346;48.766;8.674;2023-12-20T09:58:02;94222.00;;;3.70
10598;BMP180;5346;48.766;8.674;2023-12-20T10:00:37;94220.00;;;3.20
10598;BMP180;5346;48.766;8.674;2023-12-20T10:03:15;94219.00;;;3.50
10598;BMP180;5346;48.766;8.674;2023-12-20T10:05:57;94231.00;;;2.80
10598;BMP180;5346;48.766;8.674;2023-12-20T10:08:32;94218.00;;;2.70
10598;BMP180;5346;48.766;8.674;2023-12-20T10:11:00;94208.00;;;2.70
10598;BMP180;5346;48.766;8.674;2023-12-20T10:13:41;94195.00;;;2.90
10598;BMP180;5346;48.766;8.674;2023-12-20T10:16:09;94197.00;;;3.70
10598;BMP180;5346;48.766;8.674;2023-12-20T10:18:43;94190.00;;;3.90
10598;BMP180;5346;48.766;8.674;2023-12-20T10:21:12;94190.00;;;3.70
10598;BMP180;5346;48.766;8.674;2023-12-20T10:23:48;94181.00;;;3.30
10598;BMP180;5346;48.766;8.674;2023-12-20T10:26:25;94183.00;;;2.80
10598;BMP180;5346;48.766;8.674;2023-12-20T10:29:00;94189.00;;;2.50
10598;BMP180;5346;48.766;8.674;2023-12-20T10:31:32;94169.00;;;2.80
10598;BMP180;5346;48.766;8.674;2023-12-20T10:34:07;94184.00;;;2.90
10598;BMP180;5346;48.766;8.674;2023-12-20T10:36:35;94185.00;;;2.70
10598;BMP180;5346;48.766;8.674;2023-12-20T10:39:11;94183.00;;;3.40
10598;BMP180;5346;48.766;8.674;2023-12-20T10:41:39;94171.00;;;3.40
10598;BMP180;5346;48.766;8.674;2023-12-20T10:44:17;94177.00;;;3.80
10598;BMP180;5346;48.766;8.674;2023-12-20T10:46:46;94170.00;;;3.40
10598;BMP180;5346;48.766;8.674;2023-12-20T10:49:26;94167.00;;;3.10
10598;BMP180;5346;48.766;8.674;2023-12-20T10:52:03;94168.00;;;2.90
10598;BMP180;5346;48.766;8.674;2023-12-20T10:54:39;94157.00;;;3.20
10598;BMP180;5346;48.766;8.674;2023-12-20T10:57:10;94162.00;;;3.40
10598;BMP180;5346;48.766;8.674;2023-12-20T10:59:40;94169.00;;;2.70
10598;BMP180;5346;48.766;8.674;2023-12-20T11:02:17;94172.00;;;2.50
10598;BMP180;5346;48.766;8.674;2023-12-20T11:05:25;94148.00;;;3.00
10598;BMP180;5346;48.766;8.674;2023-12-20T11:08:26;94160.00;;;3.30
10598;BMP180;5346;48.766;8.674;2023-12-20T11:11:04;94138.00;;;3.90
10598;BMP180;5346;48.766;8.674;2023-12-20T11:13:58;94147.00;;;3.60
10598;BMP180;5346;48.766;8.674;2023-12-20T11:16:43;94150.00;;;3.10
10598;BMP180;5346;48.766;8.674;2023-12-20T11:19:24;94143.00;;;3.30
10598;BMP180;5346;48.766;8.674;2023-12-20T11:21:54;94129.00;;;3.70
10598;BMP180;5346;48.766;8.674;2023-12-20T11:24:27;94134.00;;;3.20
10598;BMP180;5346;48.766;8.674;2023-12-20T11:27:01;94140.00;;;3.10
10598;BMP180;5346;48.766;8.674;2023-12-20T11:29:37;94128.00;;;2.90
10598;BMP180;5346;48.766;8.674;2023-12-20T11:37:39;94101.00;;;5.00
10598;BMP180;5346;48.766;8.674;2023-12-20T11:40:18;94122.00;;;6.00
10598;BMP180;5346;48.766;8.674;2023-12-20T11:42:53;94114.00;;;5.60
10598;BMP180;5346;48.766;8.674;2023-12-20T11:45:28;94100.00;;;5.10
10598;BMP180;5346;48.766;8.674;2023-12-20T11:48:06;94104.00;;;5.50
10598;BMP180;5346;48.766;8.674;2023-12-20T11:50:41;94088.00;;;5.20
10598;BMP180;5346;48.766;8.674;2023-12-20T11:53:16;94088.00;;;5.00
10598;BMP180;5346;48.766;8.674;2023-12-20T11:55:54;94081.00;;;5.80
10598;BMP180;5346;48.766;8.674;2023-12-20T11:58:31;94107.00;;;4.90
10598;BMP180;5346;48.766;8.674;2023-12-20T12:01:06;94092.00;;;4.20
10598;BMP180;5346;48.766;8.674;2023-12-20T12:03:43;94082.00;;;4.00
10598;BMP180;5346;48.766;8.674;2023-12-20T12:06:25;94064.00;;;4.20
10598;BMP180;5346;48.766;8.674;2023-12-20T12:08:59;94071.00;;;4.00
10598;BMP180;5346;48.766;8.674;2023-12-20T12:11:29;94067.00;;;4.30
10598;BMP180;5346;48.766;8.674;2023-12-20T12:14:04;94066.00;;;4.40
10598;BMP180;5346;48.766;8.674;2023-12-20T12:16:32;94067.00;;;4.90
10598;BMP180;5346;48.766;8.674;2023-12-20T12:19:00;94079.00;;;4.80
10598;BMP180;5346;48.766;8.674;2023-12-20T12:21:35;94085.00;;;3.60
10598;BMP180;5346;48.766;8.674;2023-12-20T12:24:10;94061.00;;;5.10
10598;BMP180;5346;48.766;8.674;2023-12-20T12:26:50;94085.00;;;5.20
10598;BMP180;5346;48.766;8.674;2023-12-20T12:29:19;94083.00;;;4.40
10598;BMP180;5346;48.766;8.674;2023-12-20T12:31:53;94071.00;;;3.20
10598;BMP180;5346;48.766;8.674;2023-12-20T12:34:30;94090.00;;;3.00
10598;BMP180;5346;48.766;8.674;2023-12-20T12:36:58;94084.00;;;2.40
10598;BMP180;5346;48.766;8.674;2023-12-20T12:39:29;94080.00;;;2.50
10598;BMP180;5346;48.766;8.674;2023-12-20T12:42:04;94074.00;;;2.30
10598;BMP180;5346;48.766;8.674;2023-12-20T12:44:32;94064.00;;;2.40
10598;BMP180;5346;48.766;8.674;2023-12-20T12:47:05;94060.00;;;3.50
10598;BMP180;5346;48.766;8.674;2023-12-20T12:49:33;94087.00;;;3.80
10598;BMP180;5346;48.766;8.674;2023-12-20T12:52:09;94063.00;;;4.00
10598;BMP180;5346;48.766;8.674;2023-12-20T12:54:53;94061.00;;;4.20
10598;BMP180;5346;48.766;8.674;2023-12-20T12:57:34;94051.00;;;4.90
10598;BMP180;5346;48.766;8.674;2023-12-20T13:00:10;94045.00;;;5.20
10598;BMP180;5346;48.766;8.674;2023-12-20T13:02:39;94064.00;;;5.30
10598;BMP180;5346;48.766;8.674;2023-12-20T13:05:15;94058.00;;;4.70
10598;BMP180;5346;48.766;8.674;2023-12-20T13:07:50;94072.00;;;5.30
10598;BMP180;5346;48.766;8.674;2023-12-20T13:10:25;94067.00;;;4.50
10598;BMP180;5346;48.766;8.674;2023-12-20T13:12:55;94079.00;;;5.30
10598;BMP180;5346;48.766;8.674;2023-12-20T13:15:26;94069.00;;;4.00
10598;BMP180;5346;48.766;8.674;2023-12-20T13:18:01;94065.00;;;4.80
10598;BMP180;5346;48.766;8.674;2023-12-20T13:20:29;94088.00;;;5.00
10598;BMP180;5346;48.766;8.674;2023-12-20T13:23:03;94078.00;;;4.30
10598;BMP180;5346;48.766;8.674;2023-12-20T13:25:32;94075.00;;;3.30
10598;BMP180;5346;48.766;8.674;2023-12-20T13:28:01;94068.00;;;3.40
10598;BMP180;5346;48.766;8.674;2023-12-20T13:30:40;94081.00;;;3.60
10598;BMP180;5346;48.766;8.674;2023-12-20T13:33:08;94085.00;;;3.00
10598;BMP180;5346;48.766;8.674;2023-12-20T13:35:43;94096.00;;;2.60
10598;BMP180;5346;48.766;8.674;2023-12-20T13:38:13;94084.00;;;2.70
10598;BMP180;5346;48.766;8.674;2023-12-20T13:40:50;94083.00;;;2.30
10598;BMP180;5346;48.766;8.674;2023-12-20T13:43:18;94089.00;;;2.60
10598;BMP180;5346;48.766;8.674;2023-12-20T13:46:00;94082.00;;;2.60
10598;BMP180;5346;48.766;8.674;2023-12-20T13:48:30;94090.00;;;2.50
10598;BMP180;5346;48.766;8.674;2023-12-20T13:51:05;94096.00;;;2.30
10598;BMP180;5346;48.766;8.674;2023-12-20T13:53:33;94103.00;;;2.20
10598;BMP180;5346;48.766;8.674;2023-12-20T13:56:09;94089.00;;;2.40
10598;BMP180;5346;48.766;8.674;2023-12-20T13:58:43;94084.00;;;2.20
10598;BMP180;5346;48.766;8.674;2023-12-20T14:01:21;94081.00;;;2.10
10598;BMP180;5346;48.766;8.674;2023-12-20T14:03:49;94071.00;;;2.00
10598;BMP180;5346;48.766;8.674;2023-12-20T14:06:30;94087.00;;;2.30
10598;BMP180;5346;48.766;8.674;2023-12-20T14:08:58;94076.00;;;2.20
10598;BMP180;5346;48.766;8.674;2023-12-20T14:11:37;94082.00;;;2.10
10598;BMP180;5346;48.766;8.674;2023-12-20T14:14:08;94087.00;;;2.30
10598;BMP180;5346;48.766;8.674;2023-12-20T14:16:42;94082.00;;;2.10
10598;BMP180;5346;48.766;8.674;2023-12-20T14:19:12;94080.00;;;2.20
10598;BMP180;5346;48.766;8.674;2023-12-20T14:21:47;94063.00;;;2.20
10598;BMP180;5346;48.766;8.674;2023-12-20T14:24:17;94073.00;;;1.90
10598;BMP180;5346;48.766;8.674;2023-12-20T14:26:56;94079.00;;;2.10
10598;BMP180;5346;48.766;8.674;2023-12-20T14:29:26;94070.00;;;1.80
10598;BMP180;5346;48.766;8.674;2023-12-20T14:32:03;94077.00;;;1.90
10598;BMP180;5346;48.766;8.674;2023-12-20T14:34:40;94070.00;;;2.10
10598;BMP180;5346;48.766;8.674;2023-12-20T14:37:23;94063.00;;;2.00
10598;BMP180;5346;48.766;8.674;2023-12-20T14:39:51;94061.00;;;2.10
10598;BMP180;5346;48.766;8.674;2023-12-20T14:42:26;94076.00;;;2.30
10598;BMP180;5346;48.766;8.674;2023-12-20T14:45:00;94078.00;;;2.30
10598;BMP180;5346;48.766;8.674;2023-12-20T14:47:29;94079.00;;;2.20
10598;BMP180;5346;48.766;8.674;2023-12-20T14:50:03;94072.00;;;2.30
10598;BMP180;5346;48.766;8.674;2023-12-20T14:52:33;94071.00;;;2.20
10598;BMP180;5346;48.766;8.674;2023-12-20T14:55:08;94064.00;;;2.10
10598;BMP180;5346;48.766;8.674;2023-12-20T14:57:37;94073.00;;;2.00
10598;BMP180;5346;48.766;8.674;2023-12-20T15:00:08;94082.00;;;1.90
10598;BMP180;5346;48.766;8.674;2023-12-20T15:02:43;94097.00;;;1.80
10598;BMP180;5346;48.766;8.674;2023-12-20T15:05:11;94096.00;;;1.80
10598;BMP180;5346;48.766;8.674;2023-12-20T15:07:47;94088.00;;;1.80
10598;BMP180;5346;48.766;8.674;2023-12-20T15:10:22;94091.00;;;1.90
10598;BMP180;5346;48.766;8.674;2023-12-20T15:12:57;94079.00;;;1.80
10598;BMP180;5346;48.766;8.674;2023-12-20T15:15:32;94076.00;;;1.70
10598;BMP180;5346;48.766;8.674;2023-12-20T15:18:01;94089.00;;;1.70
10598;BMP180;5346;48.766;8.674;2023-12-20T15:20:37;94083.00;;;1.60